Time;durP1;ratioP1;P1;durP2;ratioP2;P2;SDS_P1;SDS_P2;PMS_P1;PMS_P2;Temp;Humidity;BMP_temperature;BMP_pressure;BME280_temperature;BME280_humidity;BME280_pressure;Samples;Min_cycle;Max_cycle;Signal;HPM_P1;HPM_P2
2023/12/17 00:00:49;;;;;;;5.27;2.90;;;-0.40;99.90;;;;;;2038925;28;20293;-79
2023/12/17 00:01:49;;;;;;;3.83;2.83;;;-0.40;99.90;;;;;;2040161;28;20282;-82
2023/12/17 00:02:50;;;;;;;5.83;3.47;;;-0.40;99.90;;;;;;2038315;28;20251;-80
2023/12/17 00:03:51;;;;;;;5.43;3.00;;;-0.40;99.90;;;;;;2039138;28;20246;-79
2023/12/17 00:04:51;;;;;;;5.43;3.90;;;-0.30;99.90;;;;;;2046747;28;20238;-80
2023/12/17 00:05:52;;;;;;;4.17;3.20;;;-0.40;99.90;;;;;;2046793;28;20326;-79
2023/12/17 00:06:53;;;;;;;6.30;3.60;;;-0.40;99.90;;;;;;2048131;28;20237;-80
2023/12/17 00:07:53;;;;;;;5.27;3.10;;;-0.30;99.90;;;;;;2046434;28;20290;-81
2023/12/17 00:08:54;;;;;;;5.50;2.87;;;-0.30;99.90;;;;;;2043831;28;20238;-81
2023/12/17 00:09:54;;;;;;;4.70;3.37;;;-0.30;99.90;;;;;;2051500;28;20232;-80
2023/12/17 00:10:55;;;;;;;4.97;3.23;;;-0.30;99.90;;;;;;2046398;28;20243;-80
2023/12/17 00:11:55;;;;;;;5.00;3.27;;;-0.30;99.90;;;;;;2044120;28;20232;-81
2023/12/17 00:12:56;;;;;;;4.23;3.03;;;-0.40;99.90;;;;;;2051610;28;20219;-81
2023/12/17 00:13:56;;;;;;;5.40;3.63;;;-0.40;99.90;;;;;;2051863;28;20683;-79
2023/12/17 00:14:57;;;;;;;6.07;3.40;;;-0.40;99.90;;;;;;2043175;28;20238;-81
2023/12/17 00:15:58;;;;;;;3.33;2.83;;;-0.30;99.90;;;;;;2080657;28;20348;-81
2023/12/17 00:16:58;;;;;;;4.00;3.10;;;-0.30;99.90;;;;;;2088453;28;20282;-79
2023/12/17 00:17:59;;;;;;;6.03;3.80;;;-0.40;99.90;;;;;;2044222;28;20252;-80
2023/12/17 00:18:59;;;;;;;4.67;2.73;;;-0.40;99.90;;;;;;2041772;28;20239;-79
2023/12/17 00:20:00;;;;;;;5.50;3.63;;;-0.40;99.90;;;;;;2045514;28;20316;-81
2023/12/17 00:21:01;;;;;;;4.27;3.40;;;-0.50;99.90;;;;;;2037112;28;20301;-80
2023/12/17 00:22:01;;;;;;;5.53;4.20;;;-0.40;99.90;;;;;;2038959;28;20232;-81
2023/12/17 00:23:04;;;;;;;7.07;3.27;;;-0.40;99.90;;;;;;2046588;28;20683;-82
2023/12/17 00:24:05;;;;;;;4.35;2.80;;;-0.40;99.90;;;;;;2044506;28;20279;-81
2023/12/17 00:25:06;;;;;;;4.80;2.90;;;-0.40;99.90;;;;;;2085213;28;20185;-80
2023/12/17 00:26:06;;;;;;;3.78;3.00;;;-0.50;99.90;;;;;;2084843;28;20247;-81
2023/12/17 00:27:07;;;;;;;2.70;2.20;;;-0.50;99.90;;;;;;2051950;28;20188;-81
2023/12/17 00:28:08;;;;;;;4.37;3.07;;;-0.50;99.90;;;;;;2050884;28;20219;-81
2023/12/17 00:29:08;;;;;;;5.47;3.30;;;-0.50;99.90;;;;;;2044101;28;20316;-81
2023/12/17 00:30:09;;;;;;;3.20;2.30;;;-0.50;99.90;;;;;;2044236;28;20196;-78
2023/12/17 00:31:10;;;;;;;4.65;2.97;;;-0.40;99.90;;;;;;2046764;28;20200;-79
2023/12/17 00:32:11;;;;;;;5.27;3.87;;;-0.40;99.90;;;;;;2038809;28;20193;-79
2023/12/17 00:33:11;;;;;;;5.10;3.37;;;-0.40;99.90;;;;;;2043656;29;20190;-79
2023/12/17 00:34:12;;;;;;;4.40;3.33;;;-0.40;99.90;;;;;;2036870;28;20250;-78
2023/12/17 00:35:12;;;;;;;5.50;3.27;;;-0.50;99.90;;;;;;2080919;28;20282;-79
2023/12/17 00:36:13;;;;;;;7.43;4.00;;;-0.50;99.90;;;;;;2080516;28;20254;-79
2023/12/17 00:37:14;;;;;;;4.43;2.90;;;-0.50;99.90;;;;;;2045828;28;20393;-79
2023/12/17 00:38:14;;;;;;;4.67;3.00;;;-0.60;99.90;;;;;;2084578;28;20612;-80
2023/12/17 00:39:15;;;;;;;4.90;3.93;;;-0.50;99.90;;;;;;2076463;28;20274;-78
2023/12/17 00:40:15;;;;;;;5.47;3.37;;;-0.70;99.90;;;;;;2043237;28;20231;-79
2023/12/17 00:41:16;;;;;;;4.67;2.77;;;-0.60;99.90;;;;;;2048221;28;20195;-80
2023/12/17 00:42:16;;;;;;;5.67;3.70;;;-0.60;99.90;;;;;;2043687;28;20195;-80
2023/12/17 00:43:17;;;;;;;5.13;3.07;;;-0.60;99.90;;;;;;2042123;29;20196;-84
2023/12/17 00:44:18;;;;;;;4.87;4.00;;;-0.70;99.90;;;;;;2054944;28;20304;-79
2023/12/17 00:45:18;;;;;;;6.67;3.87;;;-0.70;99.90;;;;;;2051477;28;20675;-80
2023/12/17 00:46:19;;;;;;;4.10;2.73;;;-0.70;99.90;;;;;;2042012;28;20200;-80
2023/12/17 00:47:19;;;;;;;3.50;2.83;;;-0.70;99.90;;;;;;2045137;28;20196;-80
2023/12/17 00:48:21;;;;;;;4.80;2.90;;;-0.70;99.90;;;;;;2044722;28;20192;-82
2023/12/17 00:49:22;;;;;;;4.50;3.00;;;-0.70;99.90;;;;;;2043000;29;20255;-80
2023/12/17 00:50:22;;;;;;;6.13;3.30;;;-0.70;99.90;;;;;;2052122;28;20650;-79
2023/12/17 00:51:23;;;;;;;6.83;3.93;;;-0.60;99.90;;;;;;2044125;28;20322;-80
2023/12/17 00:52:24;;;;;;;4.50;2.40;;;-0.60;99.90;;;;;;2044181;28;20257;-79
2023/12/17 00:53:24;;;;;;;3.20;2.20;;;-0.50;99.90;;;;;;2040085;28;20236;-80
2023/12/17 00:54:25;;;;;;;4.50;2.40;;;-0.50;99.90;;;;;;2039368;28;20739;-80
2023/12/17 00:55:25;;;;;;;4.03;2.97;;;-0.50;99.90;;;;;;2043641;28;20437;-80
2023/12/17 00:56:26;;;;;;;3.17;2.60;;;-0.60;99.90;;;;;;2043541;28;20240;-79
2023/12/17 00:57:27;;;;;;;5.47;2.93;;;-0.60;99.90;;;;;;2043149;28;20239;-80
2023/12/17 00:58:27;;;;;;;4.03;2.73;;;-0.60;99.90;;;;;;2045012;28;20281;-78
2023/12/17 00:59:28;;;;;;;4.60;2.47;;;-0.40;99.90;;;;;;2045284;28;20236;-79
2023/12/17 01:00:28;;;;;;;3.77;2.87;;;-0.50;99.90;;;;;;2055366;28;20233;-79
2023/12/17 01:01:29;;;;;;;4.27;3.00;;;-0.50;99.90;;;;;;2053389;28;20759;-79
2023/12/17 01:02:29;;;;;;;3.83;2.37;;;-0.50;99.90;;;;;;2051509;28;20235;-79
2023/12/17 01:03:30;;;;;;;3.43;2.77;;;-0.50;99.90;;;;;;2050645;28;20258;-79
2023/12/17 01:04:30;;;;;;;4.67;2.57;;;-0.50;99.90;;;;;;2050495;28;20318;-80
2023/12/17 01:05:33;;;;;;;3.53;2.63;;;-0.50;99.90;;;;;;2052839;28;20235;-79
2023/12/17 01:06:34;;;;;;;5.07;3.60;;;-0.50;99.90;;;;;;2051150;28;20234;-78
2023/12/17 01:07:34;;;;;;;3.40;2.60;;;-0.50;99.90;;;;;;2051156;28;20280;-79
2023/12/17 01:08:35;;;;;;;3.37;2.50;;;-0.50;99.90;;;;;;2050670;28;20234;-79
2023/12/17 01:09:35;;;;;;;3.07;2.63;;;-0.50;99.90;;;;;;2044705;28;20313;-79
2023/12/17 01:10:36;;;;;;;5.33;3.10;;;-0.50;99.90;;;;;;2043126;28;20231;-79
2023/12/17 01:11:37;;;;;;;4.33;2.70;;;-0.40;99.90;;;;;;2046769;28;20239;-80
2023/12/17 01:12:37;;;;;;;3.08;2.78;;;-0.50;99.90;;;;;;2080381;28;20265;-79
2023/12/17 01:13:38;;;;;;;3.33;2.47;;;-0.40;99.90;;;;;;2039300;29;20232;-77
2023/12/17 01:14:38;;;;;;;3.00;2.33;;;-0.50;99.90;;;;;;2047261;28;20231;-79
2023/12/17 01:15:39;;;;;;;3.30;2.57;;;-0.60;99.90;;;;;;2046910;28;20266;-79
2023/12/17 01:16:40;;;;;;;5.33;3.10;;;-0.60;99.90;;;;;;2039140;28;20266;-79
2023/12/17 01:17:40;;;;;;;3.90;2.73;;;-0.60;99.90;;;;;;2047310;28;20750;-80
2023/12/17 01:18:41;;;;;;;4.03;2.30;;;-0.60;99.90;;;;;;2046894;28;20234;-81
2023/12/17 01:19:41;;;;;;;3.20;2.63;;;-0.60;99.90;;;;;;2038740;28;20232;-80
2023/12/17 01:20:42;;;;;;;4.63;3.00;;;-0.60;99.90;;;;;;2045665;28;20314;-79
2023/12/17 01:21:42;;;;;;;3.13;2.60;;;-0.60;99.90;;;;;;2045488;28;20616;-80
2023/12/17 01:22:43;;;;;;;3.80;2.20;;;-0.60;99.90;;;;;;2044860;28;20735;-80
2023/12/17 01:23:44;;;;;;;2.83;2.23;;;-0.70;99.90;;;;;;2044502;28;20270;-79
2023/12/17 01:24:44;;;;;;;5.13;2.00;;;-0.70;99.90;;;;;;2040678;28;20236;-80
2023/12/17 01:25:45;;;;;;;4.30;2.90;;;-0.70;99.90;;;;;;2046404;28;20596;-80
2023/12/17 01:26:45;;;;;;;4.67;2.63;;;-0.80;99.90;;;;;;2045687;28;20232;-80
2023/12/17 01:27:46;;;;;;;5.10;2.87;;;-0.80;99.90;;;;;;2045232;28;20232;-79
2023/12/17 01:28:48;;;;;;;4.27;2.70;;;-0.70;99.90;;;;;;2032959;28;20584;-80
2023/12/17 01:29:48;;;;;;;3.42;2.65;;;-0.70;99.90;;;;;;2043241;28;20605;-80
2023/12/17 01:30:49;;;;;;;4.30;2.63;;;-0.70;99.90;;;;;;2043524;29;20242;-81
2023/12/17 01:31:49;;;;;;;3.90;3.07;;;-0.60;99.90;;;;;;2044697;29;20248;-81
2023/12/17 01:32:50;;;;;;;3.17;2.50;;;-0.60;99.90;;;;;;2046388;28;20300;-80
2023/12/17 01:33:51;;;;;;;2.97;2.13;;;-0.50;99.90;;;;;;2031044;28;20309;-79
2023/12/17 01:34:51;;;;;;;3.40;2.10;;;-0.60;99.90;;;;;;2038681;29;20319;-81
2023/12/17 01:35:52;;;;;;;3.47;2.43;;;-0.50;99.90;;;;;;2042981;28;20243;-81
2023/12/17 01:36:52;;;;;;;1.80;1.40;;;-0.60;99.90;;;;;;2044222;29;20231;-80
2023/12/17 01:37:53;;;;;;;3.80;2.80;;;-0.70;99.90;;;;;;2044648;28;20239;-81
2023/12/17 01:38:53;;;;;;;2.90;2.07;;;-0.70;99.90;;;;;;2043529;28;20281;-80
2023/12/17 01:39:54;;;;;;;1.77;1.63;;;-0.60;99.90;;;;;;2044098;28;20239;-79
2023/12/17 01:40:54;;;;;;;2.30;1.77;;;-0.60;99.90;;;;;;2046748;28;20243;-81
2023/12/17 01:41:55;;;;;;;2.07;1.70;;;-0.60;99.90;;;;;;2080957;28;20225;-80
2023/12/17 01:42:56;;;;;;;3.30;2.07;;;-0.60;99.90;;;;;;2052676;28;20226;-79
2023/12/17 01:43:56;;;;;;;2.60;2.13;;;-0.60;99.90;;;;;;2052063;28;20636;-79
2023/12/17 01:44:57;;;;;;;2.73;2.03;;;-0.70;99.90;;;;;;2048279;28;20247;-80
2023/12/17 01:45:58;;;;;;;2.30;2.10;;;-0.60;99.90;;;;;;2043117;28;20303;-80
2023/12/17 01:46:59;;;;;;;1.83;1.60;;;-0.70;99.90;;;;;;2048818;28;20242;-80
2023/12/17 01:48:00;;;;;;;2.15;1.60;;;-0.60;99.90;;;;;;2042444;28;20236;-80
2023/12/17 01:49:01;;;;;;;2.97;1.88;;;-0.60;99.90;;;;;;2042772;28;20232;-79
2023/12/17 01:50:01;;;;;;;4.70;2.57;;;-0.60;99.90;;;;;;2041536;28;20727;-80
2023/12/17 01:51:02;;;;;;;2.23;1.33;;;-0.50;99.90;;;;;;2045680;28;20290;-81
2023/12/17 01:52:03;;;;;;;3.03;1.90;;;-0.50;99.90;;;;;;2046869;28;20278;-79
2023/12/17 01:53:04;;;;;;;2.90;1.63;;;-0.60;99.90;;;;;;2051534;28;20191;-81
2023/12/17 01:54:05;;;;;;;1.83;1.73;;;-0.60;99.90;;;;;;2042643;28;20658;-80
2023/12/17 01:55:07;;;;;;;1.63;1.50;;;-0.60;99.90;;;;;;2045281;28;20190;-81
2023/12/17 01:56:09;;;;;;;4.38;2.25;;;-0.60;99.90;;;;;;2043670;28;20547;-81
2023/12/17 01:57:09;;;;;;;3.42;2.30;;;-0.60;99.90;;;;;;2043277;28;20227;-81
2023/12/17 01:58:10;;;;;;;3.03;2.20;;;-0.50;99.90;;;;;;2038760;28;20370;-80
2023/12/17 01:59:11;;;;;;;2.13;1.70;;;-0.50;99.90;;;;;;2047557;28;20213;-80
2023/12/17 02:00:13;;;;;;;2.10;1.60;;;-0.60;99.90;;;;;;2038941;28;20646;-80
2023/12/17 02:01:13;;;;;;;2.60;2.00;;;-0.60;99.90;;;;;;2074044;28;20189;-81
2023/12/17 02:02:15;;;;;;;2.57;1.70;;;-0.70;99.90;;;;;;2042304;28;20249;-81
2023/12/17 02:03:16;;;;;;;1.85;1.60;;;-0.60;99.90;;;;;;2035718;28;20204;-80
2023/12/17 02:04:19;;;;;;;1.80;1.33;;;-0.70;99.90;;;;;;2037475;28;20216;-79
2023/12/17 02:05:20;;;;;;;3.55;1.60;;;-0.70;99.90;;;;;;2034963;29;20572;-81
2023/12/17 02:06:21;;;;;;;3.10;1.80;;;-0.70;99.90;;;;;;2045696;28;20260;-81
2023/12/17 02:07:21;;;;;;;1.93;1.50;;;-0.70;99.90;;;;;;2034004;28;20243;-80
2023/12/17 02:08:22;;;;;;;3.27;1.73;;;-0.60;99.90;;;;;;2030511;29;20247;-79
2023/12/17 02:09:22;;;;;;;3.63;1.70;;;-0.60;99.90;;;;;;2033314;29;20247;-78
2023/12/17 02:10:24;;;;;;;2.30;1.80;;;-0.70;99.90;;;;;;2037326;29;20270;-80
2023/12/17 02:11:24;;;;;;;3.08;1.60;;;-0.60;99.90;;;;;;2034282;29;20240;-79
2023/12/17 02:12:26;;;;;;;2.23;1.50;;;-0.60;99.90;;;;;;2037426;28;20664;-79
2023/12/17 02:13:27;;;;;;;1.92;1.48;;;-0.60;99.90;;;;;;2045569;28;20665;-78
2023/12/17 02:14:27;;;;;;;4.30;1.90;;;-0.60;99.90;;;;;;2042065;28;20236;-79
2023/12/17 02:15:28;;;;;;;2.20;1.73;;;-0.60;99.90;;;;;;2040951;28;20298;-80
2023/12/17 02:16:28;;;;;;;2.10;1.87;;;-0.60;99.90;;;;;;2042421;28;20231;-79
2023/12/17 02:17:31;;;;;;;1.97;1.47;;;-0.60;99.90;;;;;;2042386;28;20262;-80
2023/12/17 02:18:31;;;;;;;2.85;1.60;;;-0.60;99.90;;;;;;2042021;28;20235;-79
2023/12/17 02:19:32;;;;;;;2.57;1.50;;;-0.60;99.90;;;;;;2041958;28;20786;-81
2023/12/17 02:20:34;;;;;;;3.03;1.63;;;-0.60;99.90;;;;;;2043613;28;20233;-80
2023/12/17 02:21:35;;;;;;;2.30;1.45;;;-0.60;99.90;;;;;;2043648;28;20242;-79
2023/12/17 02:22:36;;;;;;;2.13;1.87;;;-0.60;99.90;;;;;;2042217;28;20235;-80
2023/12/17 02:23:37;;;;;;;1.48;1.38;;;-0.60;99.90;;;;;;2042732;28;20250;-79
2023/12/17 02:24:38;;;;;;;1.47;1.30;;;-0.60;99.90;;;;;;2042422;28;20231;-80
2023/12/17 02:25:38;;;;;;;2.40;1.73;;;-0.60;99.90;;;;;;2036417;28;20236;-81
2023/12/17 02:26:42;;;;;;;2.63;1.63;;;-0.50;99.90;;;;;;2044082;28;20235;-80
2023/12/17 02:27:43;;;;;;;2.58;1.85;;;-0.60;99.90;;;;;;2041753;28;20292;-79
2023/12/17 02:28:47;;;;;;;1.63;1.45;;;-0.50;99.90;;;;;;2042785;28;20247;-79
2023/12/17 02:29:48;;;;;;;1.60;1.42;;;-0.50;99.90;;;;;;2045208;28;20254;-80
2023/12/17 02:30:49;;;;;;;1.77;1.27;;;-0.60;99.90;;;;;;2045044;28;20314;-80
2023/12/17 02:31:49;;;;;;;2.13;1.43;;;-0.50;99.90;;;;;;2043217;28;20250;-79
2023/12/17 02:32:50;;;;;;;2.07;1.40;;;-0.50;99.90;;;;;;2041006;28;20281;-79
2023/12/17 02:33:51;;;;;;;2.38;1.70;;;-0.50;99.90;;;;;;2041877;28;20804;-79
2023/12/17 02:34:52;;;;;;;1.47;1.17;;;-0.60;99.90;;;;;;2044232;28;20231;-80
2023/12/17 02:35:52;;;;;;;1.95;1.52;;;-0.60;99.90;;;;;;2041365;29;20234;-80
2023/12/17 02:36:53;;;;;;;1.43;1.23;;;-0.60;99.90;;;;;;2043749;28;20250;-79
2023/12/17 02:37:53;;;;;;;1.47;1.30;;;-0.60;99.90;;;;;;2042798;28;20227;-78
2023/12/17 02:38:54;;;;;;;2.23;1.50;;;-0.60;99.90;;;;;;2083996;28;20224;-79
2023/12/17 02:39:55;;;;;;;2.43;1.90;;;-0.60;99.90;;;;;;2077550;28;20232;-79
2023/12/17 02:40:55;;;;;;;1.50;1.00;;;-0.60;99.90;;;;;;2044396;28;20236;-79
2023/12/17 02:41:57;;;;;;;2.43;1.87;;;-0.60;99.90;;;;;;2046434;28;20238;-80
2023/12/17 02:42:58;;;;;;;2.00;1.33;;;-0.60;99.90;;;;;;2045865;29;20235;-80
2023/12/17 02:43:59;;;;;;;1.60;1.37;;;-0.60;99.90;;;;;;2046005;28;20706;-79
2023/12/17 02:44:59;;;;;;;1.30;1.07;;;-0.60;99.90;;;;;;2037522;28;20238;-79
2023/12/17 02:46:00;;;;;;;1.70;1.20;;;-0.60;99.90;;;;;;2045989;28;20235;-80
2023/12/17 02:47:00;;;;;;;1.90;1.47;;;-0.70;99.90;;;;;;2043405;28;20650;-79
2023/12/17 02:48:01;;;;;;;1.83;1.30;;;-0.70;99.90;;;;;;2041846;28;20751;-77
2023/12/17 02:49:02;;;;;;;2.43;1.37;;;-0.70;99.90;;;;;;2041004;28;20282;-79
2023/12/17 02:50:03;;;;;;;2.93;1.90;;;-0.60;99.90;;;;;;2043416;28;20195;-79
2023/12/17 02:51:03;;;;;;;2.10;1.60;;;-0.70;99.90;;;;;;2045527;28;20187;-78
2023/12/17 02:52:04;;;;;;;1.40;1.10;;;-0.60;99.90;;;;;;2042828;28;20740;-80
2023/12/17 02:53:04;;;;;;;1.60;1.13;;;-0.70;99.90;;;;;;2083254;28;20284;-79
2023/12/17 02:54:05;;;;;;;1.77;1.33;;;-0.70;99.90;;;;;;2074538;28;20251;-80
2023/12/17 02:55:06;;;;;;;2.20;1.73;;;-0.70;99.90;;;;;;2045736;28;20203;-79
2023/12/17 02:56:07;;;;;;;2.27;1.67;;;-0.70;99.90;;;;;;2045664;28;20246;-80
2023/12/17 02:57:07;;;;;;;1.73;1.33;;;-0.70;99.90;;;;;;2045236;28;20241;-79
2023/12/17 02:58:08;;;;;;;1.53;1.43;;;-0.70;99.90;;;;;;2042790;28;20197;-79
2023/12/17 02:59:10;;;;;;;3.23;1.40;;;-0.60;99.90;;;;;;2045757;28;20208;-79
2023/12/17 03:00:11;;;;;;;2.42;1.33;;;-0.70;99.90;;;;;;2046161;28;20191;-80
2023/12/17 03:01:11;;;;;;;1.70;1.00;;;-0.60;99.90;;;;;;2045436;28;20219;-79
2023/12/17 03:02:12;;;;;;;1.47;1.27;;;-0.70;99.90;;;;;;2038287;28;20643;-80
2023/12/17 03:03:12;;;;;;;1.43;1.10;;;-0.70;99.90;;;;;;2045316;28;20246;-80
2023/12/17 03:04:13;;;;;;;3.97;1.43;;;-0.60;99.90;;;;;;2042471;28;20588;-79
2023/12/17 03:05:14;;;;;;;1.50;1.10;;;-0.60;99.90;;;;;;2046011;28;20245;-79
2023/12/17 03:06:15;;;;;;;1.33;1.20;;;-0.60;99.90;;;;;;2038425;28;20250;-79
2023/12/17 03:07:15;;;;;;;1.60;1.10;;;-0.50;99.90;;;;;;2059147;28;20712;-80
2023/12/17 03:08:16;;;;;;;1.20;1.10;;;-0.60;99.90;;;;;;2057919;28;20689;-80
2023/12/17 03:09:17;;;;;;;1.17;1.03;;;-0.60;99.90;;;;;;2043071;28;20217;-79
2023/12/17 03:10:17;;;;;;;1.27;1.00;;;-0.60;99.90;;;;;;2044643;28;20192;-81
2023/12/17 03:11:18;;;;;;;1.53;1.13;;;-0.60;99.90;;;;;;2039361;29;20296;-80
2023/12/17 03:12:18;;;;;;;1.80;1.47;;;-0.60;99.90;;;;;;2038183;28;20692;-79
2023/12/17 03:13:19;;;;;;;1.30;1.20;;;-0.60;99.90;;;;;;2045688;28;20250;-80
2023/12/17 03:14:20;;;;;;;1.33;0.90;;;-0.60;99.90;;;;;;2045879;28;20241;-80
2023/12/17 03:15:20;;;;;;;1.13;1.00;;;-0.60;99.90;;;;;;2045837;29;20202;-80
2023/12/17 03:16:22;;;;;;;1.03;0.80;;;-0.60;99.90;;;;;;2045113;28;20663;-80
2023/12/17 03:17:22;;;;;;;1.33;1.00;;;-0.60;99.90;;;;;;2045330;28;20285;-80
2023/12/17 03:18:23;;;;;;;1.53;1.10;;;-0.60;99.90;;;;;;2049987;28;20214;-80
2023/12/17 03:19:23;;;;;;;1.00;0.90;;;-0.60;99.90;;;;;;2084239;28;20252;-80
2023/12/17 03:20:24;;;;;;;1.20;1.00;;;-0.60;99.90;;;;;;2063358;28;20240;-80
2023/12/17 03:21:26;;;;;;;1.70;1.30;;;-0.60;99.90;;;;;;2041459;28;20323;-80
2023/12/17 03:22:27;;;;;;;1.10;1.00;;;-0.60;99.90;;;;;;2042265;28;20236;-79
2023/12/17 03:23:27;;;;;;;1.73;1.27;;;-0.70;99.90;;;;;;2040612;28;20235;-80
2023/12/17 03:24:28;;;;;;;1.20;0.80;;;-0.60;99.90;;;;;;2042991;28;20263;-79
2023/12/17 03:25:29;;;;;;;1.00;0.80;;;-0.70;99.90;;;;;;2041857;28;20242;-80
2023/12/17 03:26:29;;;;;;;1.00;0.87;;;-0.60;99.90;;;;;;2032882;28;20818;-80
2023/12/17 03:27:30;;;;;;;1.07;0.90;;;-0.60;99.90;;;;;;2044392;28;20250;-78
2023/12/17 03:28:30;;;;;;;1.40;1.13;;;-0.70;99.90;;;;;;2048907;28;20271;-80
2023/12/17 03:29:31;;;;;;;1.10;1.00;;;-0.60;99.90;;;;;;2051223;28;20249;-80
2023/12/17 03:30:31;;;;;;;1.40;1.23;;;-0.70;99.90;;;;;;2034224;28;20787;-80
2023/12/17 03:31:32;;;;;;;1.87;1.10;;;-0.70;99.90;;;;;;2053672;28;20245;-79
2023/12/17 03:32:32;;;;;;;1.17;0.80;;;-0.70;99.90;;;;;;2057687;28;20237;-80
2023/12/17 03:33:33;;;;;;;1.07;0.80;;;-0.70;99.90;;;;;;2057717;28;20236;-80
2023/12/17 03:34:34;;;;;;;0.80;0.80;;;-0.70;99.90;;;;;;2042027;28;20304;-80
2023/12/17 03:35:34;;;;;;;1.67;0.80;;;-0.70;99.90;;;;;;2044542;28;20247;-80
2023/12/17 03:36:35;;;;;;;1.03;0.70;;;-0.70;99.90;;;;;;2041681;29;20236;-80
2023/12/17 03:37:35;;;;;;;0.80;0.70;;;-0.70;99.90;;;;;;2043749;28;20267;-80
2023/12/17 03:38:36;;;;;;;0.93;0.77;;;-0.70;99.90;;;;;;2040163;28;20600;-79
2023/12/17 03:39:36;;;;;;;1.30;0.93;;;-0.70;99.90;;;;;;2045049;28;20233;-80
2023/12/17 03:40:37;;;;;;;1.30;0.93;;;-0.70;99.90;;;;;;2037939;28;20237;-78
2023/12/17 03:41:37;;;;;;;2.30;0.80;;;-0.70;99.90;;;;;;2047634;28;20241;-78
2023/12/17 03:42:38;;;;;;;0.70;0.70;;;-0.70;99.90;;;;;;2043494;28;20248;-79
2023/12/17 03:43:38;;;;;;;1.17;1.07;;;-0.70;99.90;;;;;;2035542;29;20232;-80
2023/12/17 03:44:39;;;;;;;1.10;0.90;;;-0.80;99.90;;;;;;2043480;28;20262;-80
2023/12/17 03:45:40;;;;;;;1.37;1.03;;;-0.70;99.90;;;;;;2042735;28;20249;-80
2023/12/17 03:46:40;;;;;;;1.37;1.07;;;-0.80;99.90;;;;;;2044840;28;20285;-79
2023/12/17 03:47:46;;;;;;;1.73;1.00;;;-0.80;99.90;;;;;;2043370;28;20249;-80
2023/12/17 03:48:47;;;;;;;0.82;0.73;;;-0.80;99.90;;;;;;2047631;28;20241;-80
2023/12/17 03:49:48;;;;;;;1.30;1.13;;;-0.70;99.90;;;;;;2046184;28;20608;-80
2023/12/17 03:50:48;;;;;;;1.17;1.07;;;-0.70;99.90;;;;;;2044725;28;20242;-79
2023/12/17 03:51:49;;;;;;;1.67;0.93;;;-0.80;99.90;;;;;;2044090;28;20244;-80
2023/12/17 03:52:50;;;;;;;1.17;1.03;;;-0.70;99.90;;;;;;2038746;28;20236;-80
2023/12/17 03:53:50;;;;;;;1.03;0.90;;;-0.80;99.90;;;;;;2042964;29;20251;-79
2023/12/17 03:54:51;;;;;;;0.93;0.83;;;-0.70;99.90;;;;;;2039499;28;20689;-78
2023/12/17 03:55:52;;;;;;;1.10;1.00;;;-0.70;99.90;;;;;;2039081;29;20240;-80
2023/12/17 03:56:52;;;;;;;0.90;0.90;;;-0.70;99.90;;;;;;2046436;28;20231;-80
2023/12/17 03:57:53;;;;;;;1.03;0.87;;;-0.80;99.90;;;;;;2046104;28;20321;-80
2023/12/17 03:58:53;;;;;;;1.33;0.80;;;-0.80;99.90;;;;;;2038460;28;20232;-80
2023/12/17 03:59:54;;;;;;;1.10;1.00;;;-0.80;99.90;;;;;;2046338;28;21220;-80
2023/12/17 04:00:54;;;;;;;1.20;1.07;;;-0.70;99.90;;;;;;2045658;28;20294;-79
2023/12/17 04:01:57;;;;;;;0.87;0.87;;;-0.80;99.90;;;;;;2044389;28;20220;-80
2023/12/17 04:02:57;;;;;;;0.80;0.80;;;-0.80;99.90;;;;;;2045112;28;20246;-80
2023/12/17 04:03:58;;;;;;;1.30;1.20;;;-0.80;99.90;;;;;;2048552;28;20233;-78
2023/12/17 04:04:59;;;;;;;1.87;0.80;;;-0.80;99.90;;;;;;2041115;29;20225;-80
2023/12/17 04:06:02;;;;;;;1.02;0.95;;;-0.80;99.90;;;;;;2048644;28;20661;-79
2023/12/17 04:07:02;;;;;;;0.80;0.77;;;-0.90;99.90;;;;;;2045796;28;20211;-79
2023/12/17 04:08:05;;;;;;;1.13;0.93;;;-0.90;99.90;;;;;;2045493;28;20330;-80
2023/12/17 04:09:06;;;;;;;1.00;0.65;;;-0.80;99.90;;;;;;2046459;28;20688;-80
2023/12/17 04:10:07;;;;;;;1.00;0.90;;;-0.90;99.90;;;;;;2045845;28;20187;-79
2023/12/17 04:11:07;;;;;;;0.73;0.70;;;-0.90;99.90;;;;;;2088237;28;20230;-80
2023/12/17 04:12:08;;;;;;;1.07;0.97;;;-0.90;99.90;;;;;;2079302;28;20905;-80
2023/12/17 04:13:08;;;;;;;1.00;0.83;;;-0.80;99.90;;;;;;2045663;28;20180;-80
2023/12/17 04:14:09;;;;;;;1.10;0.77;;;-0.80;99.90;;;;;;2038835;28;20716;-81
2023/12/17 04:15:09;;;;;;;1.10;0.93;;;-0.80;99.90;;;;;;2039117;28;20687;-80
2023/12/17 04:16:10;;;;;;;1.80;1.30;;;-0.80;99.90;;;;;;2038074;29;20180;-80
2023/12/17 04:17:11;;;;;;;1.13;0.80;;;-0.80;99.90;;;;;;2047648;28;20188;-79
2023/12/17 04:18:11;;;;;;;1.90;1.33;;;-0.80;99.90;;;;;;2046322;28;20191;-80
2023/12/17 04:19:12;;;;;;;2.30;1.00;;;-0.80;99.90;;;;;;2046015;28;20256;-81
2023/12/17 04:20:12;;;;;;;1.63;1.00;;;-0.80;99.90;;;;;;2080954;28;20196;-80
2023/12/17 04:21:13;;;;;;;1.50;1.10;;;-0.80;99.90;;;;;;2080513;28;20719;-80
2023/12/17 04:22:13;;;;;;;1.90;1.40;;;-0.80;99.90;;;;;;2045806;29;20237;-80
2023/12/17 04:23:15;;;;;;;1.53;1.13;;;-0.90;99.90;;;;;;2045296;28;20287;-81
2023/12/17 04:24:15;;;;;;;0.75;0.73;;;-0.90;99.90;;;;;;2045492;28;20251;-81
2023/12/17 04:25:16;;;;;;;1.17;1.00;;;-0.90;99.90;;;;;;2087892;28;20185;-81
2023/12/17 04:26:16;;;;;;;1.97;1.13;;;-0.90;99.90;;;;;;2080539;28;20184;-81
2023/12/17 04:27:17;;;;;;;1.00;0.90;;;-0.90;99.90;;;;;;2039009;28;20683;-79
2023/12/17 04:28:17;;;;;;;1.60;1.13;;;-0.90;99.90;;;;;;2038501;28;20193;-79
2023/12/17 04:29:19;;;;;;;1.37;1.27;;;-0.80;99.90;;;;;;2040367;29;20656;-81
2023/12/17 04:30:20;;;;;;;1.45;0.95;;;-0.90;99.90;;;;;;2038934;29;20669;-81
2023/12/17 04:31:20;;;;;;;1.13;1.00;;;-0.90;99.90;;;;;;2038288;28;20288;-80
2023/12/17 04:32:21;;;;;;;1.10;0.90;;;-0.90;99.90;;;;;;2045629;28;20187;-79
2023/12/17 04:33:21;;;;;;;1.53;1.00;;;-0.90;99.90;;;;;;2045149;28;20730;-79
2023/12/17 04:34:22;;;;;;;1.83;1.40;;;-0.90;99.90;;;;;;2050737;28;20244;-79
2023/12/17 04:35:23;;;;;;;1.00;0.90;;;-0.90;99.90;;;;;;2049330;28;20612;-80
2023/12/17 04:36:25;;;;;;;1.27;1.00;;;-0.90;99.90;;;;;;2058227;28;20241;-79
2023/12/17 04:37:25;;;;;;;0.82;0.82;;;-0.90;99.90;;;;;;2053699;28;20259;-80
2023/12/17 04:38:26;;;;;;;1.20;0.80;;;-0.90;99.90;;;;;;2045910;28;20236;-80
2023/12/17 04:39:26;;;;;;;1.40;1.00;;;-0.90;99.90;;;;;;2054062;28;20239;-79
2023/12/17 04:40:27;;;;;;;1.07;0.73;;;-0.90;99.90;;;;;;2055853;28;20231;-78
2023/12/17 04:41:28;;;;;;;0.60;0.60;;;-0.90;99.90;;;;;;2047130;28;20819;-80
2023/12/17 04:42:28;;;;;;;0.83;0.70;;;-0.90;99.90;;;;;;2038597;28;20311;-80
2023/12/17 04:43:29;;;;;;;1.23;1.00;;;-0.90;99.90;;;;;;2055823;28;20227;-80
2023/12/17 04:44:29;;;;;;;1.00;0.70;;;-0.80;99.90;;;;;;2045128;28;20835;-79
2023/12/17 04:45:30;;;;;;;1.00;0.80;;;-0.80;99.90;;;;;;2088110;28;20307;-81
2023/12/17 04:46:31;;;;;;;1.23;0.80;;;-0.90;99.90;;;;;;2079159;28;20228;-80
2023/12/17 04:47:32;;;;;;;0.70;0.60;;;-0.90;99.90;;;;;;2044542;28;20597;-80
2023/12/17 04:48:33;;;;;;;0.68;0.68;;;-0.90;99.90;;;;;;2056192;28;20241;-80
2023/12/17 04:49:33;;;;;;;5.60;1.93;;;-0.90;99.90;;;;;;2053922;28;20273;-80
2023/12/17 04:50:34;;;;;;;2.30;1.03;;;-0.90;99.90;;;;;;2052871;28;20810;-81
2023/12/17 04:51:34;;;;;;;1.40;0.70;;;-1.00;99.90;;;;;;2039994;28;20290;-79
2023/12/17 04:52:35;;;;;;;1.37;1.07;;;-0.90;99.90;;;;;;2045002;28;20309;-79
2023/12/17 04:53:35;;;;;;;1.00;0.90;;;-0.90;99.90;;;;;;2046219;28;20333;-79
2023/12/17 04:54:36;;;;;;;1.43;1.00;;;-0.90;99.90;;;;;;2046505;28;20258;-79
2023/12/17 04:55:37;;;;;;;1.37;1.23;;;-0.90;99.90;;;;;;2046008;28;20239;-79
2023/12/17 04:56:37;;;;;;;1.17;1.07;;;-0.90;99.90;;;;;;2044751;28;20283;-80
2023/12/17 04:57:38;;;;;;;0.60;0.60;;;-0.90;99.90;;;;;;2043473;28;20243;-80
2023/12/17 04:58:38;;;;;;;0.90;0.90;;;-0.90;99.90;;;;;;2045985;28;20255;-79
2023/12/17 04:59:39;;;;;;;1.07;0.80;;;-0.90;99.90;;;;;;2045162;28;20247;-80
2023/12/17 05:00:40;;;;;;;0.97;0.83;;;-0.90;99.90;;;;;;2044348;28;20231;-80
2023/12/17 05:01:41;;;;;;;0.50;0.50;;;-0.90;99.90;;;;;;2038262;28;20262;-81
2023/12/17 05:02:41;;;;;;;0.60;0.60;;;-0.90;99.90;;;;;;2047159;28;20700;-80
2023/12/17 05:03:42;;;;;;;1.17;0.77;;;-0.90;99.90;;;;;;2046407;28;20684;-78
2023/12/17 05:04:42;;;;;;;0.80;0.70;;;-0.90;99.90;;;;;;2045629;28;20327;-80
2023/12/17 05:05:44;;;;;;;0.90;0.60;;;-0.90;99.90;;;;;;2043482;28;20236;-80
2023/12/17 05:06:44;;;;;;;0.73;0.60;;;-0.90;99.90;;;;;;2046097;28;20228;-79
2023/12/17 05:07:45;;;;;;;0.70;0.70;;;-0.90;99.90;;;;;;2044917;28;20236;-79
2023/12/17 05:08:45;;;;;;;0.83;0.63;;;-0.90;99.90;;;;;;2046114;28;20277;-81
2023/12/17 05:09:46;;;;;;;0.70;0.70;;;-0.90;99.90;;;;;;2046257;28;20224;-81
2023/12/17 05:10:46;;;;;;;0.60;0.60;;;-0.90;99.90;;;;;;2046261;28;20255;-80
2023/12/17 05:11:47;;;;;;;0.70;0.67;;;-0.90;99.90;;;;;;2046119;28;20254;-81
2023/12/17 05:12:48;;;;;;;0.50;0.50;;;-0.90;99.90;;;;;;2046477;28;20223;-80
2023/12/17 05:13:48;;;;;;;0.83;0.70;;;-0.90;99.90;;;;;;2043278;28;20373;-80
2023/12/17 05:14:49;;;;;;;0.67;0.67;;;-0.90;99.90;;;;;;2038201;28;20232;-80
2023/12/17 05:15:50;;;;;;;0.60;0.60;;;-0.90;99.90;;;;;;2046110;28;20231;-80
2023/12/17 05:16:50;;;;;;;0.60;0.60;;;-0.90;99.90;;;;;;2047287;28;20228;-79